Portada
METAR-TAF:

METAR-TAF

Aeroports :

Narathiwat, Tailàndia

latitud: 6-31-12N, longitud: 101-44-36E, altitud: 5 m

Observació

L'informe es va fer fa 1 hora i 21 minuts, a les 10:00 UTC
Vent 9 kt del Est/Nord-Est, variant entre Nord-Est i Est
Temperatura 28°C
Humitat 74%
Pressió 1011 hPa
Visibilitat 10 km o més
Escasses núvols a una alçada de 2200 ft

METAR: VTSC 261000Z 06009KT 040V100 9999 FEW022 28/23 Q1011 NOSIG

Hora: 18:21 (11:21 UTC)

Pronòstic

L'informe es va fer fa 6 hores i 21 minuts, a les 05:00 UTC
Pronòstic vàlid del 26 a les 06 UTC al 27 a les 06 UTC
Vent 10 kt del Est
Visibilitat 10 km o més
Escasses núvols a una alçada de 2000 ft
Evolucionant progressivament
l' 26 a les 16 UTC al 26 a les 18 UTC
Vent 5 kt del Sud
Evolucionant progressivament
l' 27 a les 04 UTC al 27 a les 06 UTC
Vent 10 kt del Est

TAF: VTSC 260500Z 2606/2706 09010KT 9999 FEW020 BECMG 2616/2618 18005KT BECMG 2704/2706 09010KT

Observacions i pronòstics meteorològics de més de 4000 aeroports (METAR i TAF).

Les estacions disponibles són els punts grocs i vermells al mapa.

Posi el ratolí al punt desitjat per veure el nom de l'estació.

Feu clic per veure les observacions i els pronòstics meteorològics.

Per canviar el mapa: feu clic els botons verds amb una creu de color negre per apropar; al botó verd amb un guió per allunyar la imatge; o en les fletxes verdes per a mapes adjacents.


METAR-TAF: